createdAt,value
2022-09-17T00:01:24.311Z,9.70
2022-09-17T00:03:53.912Z,9.70
2022-09-17T00:06:22.132Z,9.80
2022-09-17T00:08:49.635Z,9.90
2022-09-17T00:11:21.328Z,10.00
2022-09-17T00:13:50.159Z,10.10
2022-09-17T00:16:32.735Z,10.20
2022-09-17T00:19:01.353Z,10.20
2022-09-17T00:21:28.891Z,10.40
2022-09-17T00:23:58.959Z,10.40
2022-09-17T00:26:27.270Z,10.50
2022-09-17T00:28:55.361Z,10.50
2022-09-17T00:31:23.185Z,10.50
2022-09-17T00:33:51.193Z,10.50
2022-09-17T00:36:20.567Z,10.50
2022-09-17T00:38:56.127Z,10.60
2022-09-17T00:41:29.567Z,10.60
2022-09-17T00:43:59.618Z,10.70
2022-09-17T00:46:39.795Z,10.70
2022-09-17T00:49:16.720Z,10.90
2022-09-17T00:51:57.047Z,10.80
2022-09-17T00:54:26.965Z,10.80
2022-09-17T00:56:54.727Z,10.80
2022-09-17T00:59:23.083Z,10.90
2022-09-17T01:01:50.856Z,10.90
2022-09-17T01:04:19.878Z,10.90
2022-09-17T01:07:08.377Z,10.90
2022-09-17T01:09:54.025Z,10.90
2022-09-17T01:12:23.745Z,10.90
2022-09-17T01:15:03.485Z,10.90
2022-09-17T01:18:09.005Z,10.80
2022-09-17T01:21:03.318Z,10.80
2022-09-17T01:23:30.262Z,10.70
2022-09-17T01:26:16.527Z,10.70
2022-09-17T01:29:15.027Z,10.60
2022-09-17T01:31:56.014Z,10.50
2022-09-17T01:34:37.308Z,10.40
2022-09-17T01:37:06.162Z,10.30
2022-09-17T01:39:50.375Z,10.20
2022-09-17T01:42:20.684Z,10.10
2022-09-17T01:44:53.182Z,10.00
2022-09-17T01:47:26.293Z,10.00
2022-09-17T01:49:59.980Z,9.90
2022-09-17T01:52:29.020Z,9.80
2022-09-17T01:55:01.676Z,9.80
2022-09-17T01:57:33.744Z,9.70
2022-09-17T02:00:10.233Z,9.70
2022-09-17T02:03:06.777Z,9.60
2022-09-17T02:05:43.567Z,9.50
2022-09-17T02:08:26.248Z,9.50
2022-09-17T02:11:02.086Z,9.40
2022-09-17T02:13:37.271Z,9.70
2022-09-17T02:16:17.029Z,9.30
2022-09-17T02:18:50.756Z,9.30
2022-09-17T02:21:27.806Z,9.20
2022-09-17T02:24:07.044Z,9.20
2022-09-17T02:26:36.318Z,9.10
2022-09-17T02:29:09.993Z,9.10
2022-09-17T02:31:37.035Z,9.10
2022-09-17T02:34:06.710Z,9.00
2022-09-17T02:36:35.227Z,9.00
2022-09-17T02:39:03.853Z,8.90
2022-09-17T02:41:54.590Z,8.90
2022-09-17T02:44:52.387Z,8.90
2022-09-17T02:47:44.806Z,8.80
2022-09-17T02:50:26.483Z,8.80
2022-09-17T02:53:06.898Z,8.80
2022-09-17T02:56:02.694Z,8.70
2022-09-17T02:58:45.097Z,8.70
2022-09-17T03:01:23.835Z,8.70
2022-09-17T03:03:52.678Z,8.60
2022-09-17T03:06:19.817Z,8.60
2022-09-17T03:08:47.856Z,8.60
2022-09-17T03:11:15.108Z,8.60
2022-09-17T03:13:42.175Z,8.50
2022-09-17T03:16:09.474Z,8.50
2022-09-17T03:18:36.740Z,8.50
2022-09-17T03:21:03.866Z,8.50
2022-09-17T03:23:30.804Z,8.50
2022-09-17T03:25:58.327Z,8.40
2022-09-17T03:28:26.541Z,8.40
2022-09-17T03:30:54.125Z,8.40
2022-09-17T03:33:21.682Z,8.30
2022-09-17T03:35:49.164Z,8.30
2022-09-17T03:38:16.860Z,8.30
2022-09-17T03:40:44.350Z,8.30
2022-09-17T03:43:11.401Z,8.20
2022-09-17T03:45:38.636Z,8.20
2022-09-17T03:48:05.815Z,8.20
2022-09-17T03:50:32.868Z,8.10
2022-09-17T03:52:59.852Z,8.10
2022-09-17T03:55:26.990Z,8.10
2022-09-17T03:57:54.145Z,8.10
2022-09-17T04:00:21.094Z,8.10
2022-09-17T04:02:48.796Z,8.10
2022-09-17T04:05:15.862Z,8.10
2022-09-17T04:07:42.790Z,8.00
2022-09-17T04:10:10.213Z,8.00
2022-09-17T04:12:37.303Z,8.00
2022-09-17T04:15:05.075Z,8.00
2022-09-17T04:17:32.702Z,8.00
2022-09-17T04:20:00.118Z,8.10
2022-09-17T04:22:27.212Z,8.10
2022-09-17T04:24:54.406Z,8.20
2022-09-17T04:27:21.454Z,8.20
2022-09-17T04:29:48.444Z,8.30
2022-09-17T04:32:15.812Z,8.40
2022-09-17T04:34:42.795Z,8.50
2022-09-17T04:37:09.909Z,8.60
2022-09-17T04:39:38.191Z,8.70
2022-09-17T04:42:05.293Z,8.80
2022-09-17T04:44:32.352Z,9.00
2022-09-17T04:46:59.631Z,9.10
2022-09-17T04:49:29.802Z,9.30
2022-09-17T04:51:56.772Z,9.40
2022-09-17T04:54:24.283Z,9.50
2022-09-17T04:56:51.758Z,9.60
2022-09-17T04:59:18.858Z,9.70
2022-09-17T05:01:46.273Z,9.70
2022-09-17T05:04:13.306Z,9.80
2022-09-17T05:06:40.380Z,9.90
2022-09-17T05:09:07.939Z,9.90
2022-09-17T05:11:35.674Z,10.00
2022-09-17T05:14:02.737Z,10.00
2022-09-17T05:16:29.989Z,10.10
2022-09-17T05:18:58.130Z,10.20
2022-09-17T05:21:25.455Z,10.20
2022-09-17T05:23:52.932Z,10.30
2022-09-17T05:26:19.937Z,10.30
2022-09-17T05:28:46.914Z,10.30
2022-09-17T05:31:14.224Z,10.40
2022-09-17T05:33:41.251Z,10.40
2022-09-17T05:36:08.357Z,10.50
2022-09-17T05:38:35.636Z,10.50
2022-09-17T05:41:06.780Z,10.50
2022-09-17T05:43:34.504Z,10.60
2022-09-17T05:46:07.930Z,10.70
2022-09-17T05:48:35.427Z,10.80
2022-09-17T05:51:02.721Z,10.90
2022-09-17T05:53:29.725Z,11.00
2022-09-17T05:55:58.564Z,11.10
2022-09-17T05:58:27.100Z,11.20
2022-09-17T06:00:54.111Z,11.30
2022-09-17T06:03:25.404Z,11.30
2022-09-17T06:05:58.507Z,11.40
2022-09-17T06:08:27.878Z,11.50
2022-09-17T06:10:58.934Z,11.60
2022-09-17T06:13:28.802Z,11.80
2022-09-17T06:15:56.161Z,12.00
2022-09-17T06:18:23.704Z,12.40
2022-09-17T06:20:55.679Z,13.00
2022-09-17T06:23:24.243Z,13.50
2022-09-17T06:26:00.922Z,14.40
2022-09-17T06:28:29.241Z,15.10
2022-09-17T06:31:03.894Z,15.20
2022-09-17T06:33:32.092Z,15.10
2022-09-17T06:36:13.152Z,15.50
2022-09-17T06:38:41.450Z,15.40
2022-09-17T06:41:08.500Z,15.30
2022-09-17T06:43:35.455Z,15.10
2022-09-17T06:46:09.224Z,15.10
2022-09-17T06:48:37.498Z,15.00
2022-09-17T06:51:07.896Z,15.00
2022-09-17T06:53:37.306Z,15.00
2022-09-17T06:56:06.877Z,15.00
2022-09-17T06:58:38.836Z,15.20
2022-09-17T07:01:06.397Z,15.30
2022-09-17T07:03:34.231Z,15.40
2022-09-17T07:06:01.631Z,15.30
2022-09-17T07:08:29.455Z,15.30
2022-09-17T07:10:57.360Z,15.50
2022-09-17T07:13:25.431Z,15.60
2022-09-17T07:15:58.031Z,15.70
2022-09-17T07:18:26.477Z,15.80
2022-09-17T07:20:55.235Z,15.80
2022-09-17T07:23:26.903Z,15.80
2022-09-17T07:26:02.368Z,15.60
2022-09-17T07:28:29.938Z,15.50
2022-09-17T07:31:05.390Z,15.70
2022-09-17T07:33:34.335Z,15.50
2022-09-17T07:36:03.538Z,15.60
2022-09-17T07:38:31.376Z,15.70
2022-09-17T07:41:02.795Z,15.90
2022-09-17T07:43:32.325Z,16.10
2022-09-17T07:46:01.524Z,16.30
2022-09-17T07:48:29.700Z,16.60
2022-09-17T07:50:57.299Z,16.80
2022-09-17T07:53:24.934Z,17.10
2022-09-17T07:55:56.655Z,17.00
2022-09-17T07:58:32.415Z,17.00
2022-09-17T08:01:04.653Z,17.30
2022-09-17T08:03:31.949Z,17.60
2022-09-17T08:06:13.226Z,17.80
2022-09-17T08:08:44.319Z,17.80
2022-09-17T08:11:32.444Z,17.60
2022-09-17T08:14:04.776Z,17.60
2022-09-17T08:16:31.939Z,17.80
2022-09-17T08:18:59.061Z,17.80
2022-09-17T08:21:26.655Z,17.60
2022-09-17T08:23:53.621Z,17.40
2022-09-17T08:26:23.583Z,17.30
2022-09-17T08:28:55.040Z,17.00
2022-09-17T08:31:24.111Z,16.80
2022-09-17T08:33:51.644Z,16.80
2022-09-17T08:36:19.980Z,16.70
2022-09-17T08:38:47.367Z,16.70
2022-09-17T08:41:26.818Z,16.90
2022-09-17T08:43:56.602Z,16.90
2022-09-17T08:46:25.590Z,17.30
2022-09-17T08:49:12.262Z,17.50
2022-09-17T08:51:55.083Z,17.60
2022-09-17T08:54:57.087Z,17.60
2022-09-17T08:57:27.166Z,17.60
2022-09-17T09:00:09.982Z,17.50
2022-09-17T09:03:03.573Z,17.40
2022-09-17T09:05:39.898Z,17.30
2022-09-17T09:08:14.429Z,17.10
2022-09-17T09:10:52.481Z,17.00
2022-09-17T09:13:22.942Z,16.80
2022-09-17T09:16:02.461Z,16.60
2022-09-17T09:18:38.529Z,16.40
2022-09-17T09:21:07.333Z,16.40
2022-09-17T09:23:44.556Z,16.30
2022-09-17T09:26:18.878Z,16.20
2022-09-17T09:29:05.948Z,16.10
2022-09-17T09:31:50.282Z,16.10
2022-09-17T09:34:17.729Z,16.10
2022-09-17T09:36:45.622Z,16.10
2022-09-17T09:39:16.047Z,16.00
2022-09-17T09:41:47.439Z,15.80
2022-09-17T09:44:16.788Z,15.70
2022-09-17T09:47:24.608Z,15.70
2022-09-17T09:50:00.532Z,15.60
2022-09-17T09:52:46.031Z,15.50
2022-09-17T09:55:34.448Z,15.50
2022-09-17T09:58:38.422Z,15.60
2022-09-17T10:01:17.742Z,15.70
2022-09-17T10:03:47.735Z,15.80
2022-09-17T10:06:17.117Z,16.00
2022-09-17T10:08:50.977Z,16.20
2022-09-17T10:11:26.564Z,16.40
2022-09-17T10:13:54.654Z,16.60
2022-09-17T10:16:21.967Z,16.80
2022-09-17T10:18:51.312Z,16.80
2022-09-17T10:21:33.156Z,16.60
2022-09-17T10:24:02.439Z,16.40
2022-09-17T10:26:32.525Z,16.30
2022-09-17T10:29:06.114Z,16.20
2022-09-17T10:31:50.944Z,16.10
2022-09-17T10:34:23.530Z,16.00
2022-09-17T10:36:51.473Z,16.00
2022-09-17T10:39:46.641Z,15.90
2022-09-17T10:42:18.908Z,15.80
2022-09-17T10:45:00.860Z,15.70
2022-09-17T10:47:42.447Z,15.70
2022-09-17T10:50:19.182Z,15.80
2022-09-17T10:52:55.889Z,15.90
2022-09-17T10:55:44.062Z,16.00
2022-09-17T10:58:15.110Z,15.90
2022-09-17T11:00:52.369Z,15.90
2022-09-17T11:03:42.009Z,15.80
2022-09-17T11:06:23.761Z,15.80
2022-09-17T11:09:02.379Z,15.70
2022-09-17T11:11:38.657Z,15.80
2022-09-17T11:14:24.268Z,15.90
2022-09-17T11:17:07.637Z,16.20
2022-09-17T11:19:55.430Z,16.50
2022-09-17T11:22:25.618Z,16.60
2022-09-17T11:25:21.695Z,16.60
2022-09-17T11:28:13.727Z,16.50
2022-09-17T11:30:58.657Z,16.40
2022-09-17T11:34:17.908Z,16.30
2022-09-17T11:36:52.604Z,16.60
2022-09-17T11:39:26.216Z,16.80
2022-09-17T11:41:56.034Z,16.90
2022-09-17T11:44:40.965Z,16.80
2022-09-17T11:47:12.705Z,16.60
2022-09-17T11:50:11.715Z,16.50
2022-09-17T11:53:04.484Z,16.40
2022-09-17T11:55:35.495Z,16.50
2022-09-17T11:58:39.706Z,16.90
2022-09-17T12:01:12.218Z,17.20
2022-09-17T12:03:56.984Z,17.40
2022-09-17T12:06:52.328Z,17.60
2022-09-17T12:09:21.389Z,17.70
2022-09-17T12:11:56.589Z,17.70
2022-09-17T12:14:31.827Z,17.90
2022-09-17T12:17:02.638Z,17.90
2022-09-17T12:19:48.344Z,17.80
2022-09-17T12:22:24.010Z,17.90
2022-09-17T12:24:52.990Z,18.00
2022-09-17T12:27:47.841Z,18.00
2022-09-17T12:30:35.438Z,18.10
2022-09-17T12:33:16.023Z,18.00
2022-09-17T12:36:23.281Z,18.00
2022-09-17T12:39:15.431Z,17.90
2022-09-17T12:41:45.692Z,17.90
2022-09-17T12:44:31.053Z,17.80
2022-09-17T12:47:31.866Z,17.60
2022-09-17T12:50:27.225Z,17.60
2022-09-17T12:53:00.125Z,17.70
2022-09-17T12:55:44.044Z,17.80
2022-09-17T12:58:31.075Z,17.80
2022-09-17T13:01:06.007Z,17.80
2022-09-17T13:03:41.470Z,17.80
2022-09-17T13:06:20.064Z,17.70
2022-09-17T13:09:06.210Z,17.60
2022-09-17T13:11:56.693Z,17.40
2022-09-17T13:14:57.785Z,17.20
2022-09-17T13:17:28.573Z,17.10
2022-09-17T13:20:14.602Z,17.10
2022-09-17T13:22:47.157Z,17.20
2022-09-17T13:25:17.223Z,17.30
2022-09-17T13:27:45.800Z,17.30
2022-09-17T13:30:15.828Z,17.30
2022-09-17T13:32:45.623Z,17.20
2022-09-17T13:35:15.513Z,16.90
2022-09-17T13:38:01.695Z,16.70
2022-09-17T13:40:36.958Z,16.50
2022-09-17T13:43:08.265Z,16.40
2022-09-17T13:46:11.001Z,16.30
2022-09-17T13:48:46.542Z,16.20
2022-09-17T13:51:34.855Z,16.10
2022-09-17T13:54:09.046Z,16.20
2022-09-17T13:56:52.280Z,15.90
2022-09-17T13:59:28.767Z,15.90
2022-09-17T14:01:57.605Z,16.00
2022-09-17T14:04:42.569Z,15.90
2022-09-17T14:07:30.177Z,15.90
2022-09-17T14:10:43.597Z,16.00
2022-09-17T14:13:27.726Z,16.10
2022-09-17T14:15:58.214Z,16.10
2022-09-17T14:18:28.400Z,16.10
2022-09-17T14:21:14.833Z,16.10
2022-09-17T14:23:49.093Z,16.10
2022-09-17T14:26:32.664Z,16.10
2022-09-17T14:29:21.889Z,16.10
2022-09-17T14:31:49.066Z,16.20
2022-09-17T14:34:22.175Z,16.10
2022-09-17T14:36:50.844Z,16.20
2022-09-17T14:39:25.231Z,16.30
2022-09-17T14:41:54.463Z,16.40
2022-09-17T14:44:25.925Z,16.60
2022-09-17T14:47:04.415Z,16.80
2022-09-17T14:49:36.281Z,16.90
2022-09-17T14:52:24.810Z,17.00
2022-09-17T14:55:11.140Z,17.00
2022-09-17T14:57:38.812Z,17.10
2022-09-17T15:00:10.996Z,17.00
2022-09-17T15:02:38.312Z,17.00
2022-09-17T15:05:26.823Z,17.20
2022-09-17T15:08:17.264Z,17.10
2022-09-17T15:10:55.190Z,17.20
2022-09-17T15:13:35.811Z,17.30
2022-09-17T15:16:07.806Z,17.40
2022-09-17T15:18:50.690Z,17.40
2022-09-17T15:21:44.645Z,17.30
2022-09-17T15:24:30.296Z,17.20
2022-09-17T15:27:03.482Z,17.10
2022-09-17T15:29:33.533Z,16.90
2022-09-17T15:32:04.991Z,16.80
2022-09-17T15:34:32.751Z,16.70
2022-09-17T15:37:07.305Z,16.50
2022-09-17T15:39:42.955Z,16.40
2022-09-17T15:42:24.245Z,16.30
2022-09-17T15:44:51.564Z,16.20
2022-09-17T15:48:02.063Z,16.10
2022-09-17T15:50:31.841Z,15.90
2022-09-17T15:53:10.618Z,15.80
2022-09-17T15:55:42.688Z,15.90
2022-09-17T15:58:23.494Z,15.70
2022-09-17T16:01:16.438Z,15.60
2022-09-17T16:03:44.538Z,15.40
2022-09-17T16:06:25.336Z,15.40
2022-09-17T16:08:57.492Z,15.30
2022-09-17T16:11:32.169Z,15.20
2022-09-17T16:14:03.264Z,14.90
2022-09-17T16:16:35.745Z,14.60
2022-09-17T16:19:04.438Z,14.50
2022-09-17T16:21:32.176Z,14.30
2022-09-17T16:23:59.323Z,14.20
2022-09-17T16:26:30.645Z,14.10
2022-09-17T16:29:05.628Z,14.00
2022-09-17T16:31:33.530Z,14.10
2022-09-17T16:34:01.148Z,14.10
2022-09-17T16:36:31.061Z,14.10
2022-09-17T16:38:59.287Z,14.00
2022-09-17T16:41:26.871Z,14.00
2022-09-17T16:43:54.180Z,14.10
2022-09-17T16:46:21.406Z,13.80
2022-09-17T16:48:51.889Z,13.70
2022-09-17T16:51:18.993Z,13.60
2022-09-17T16:53:46.209Z,13.50
2022-09-17T16:56:15.359Z,13.40
2022-09-17T16:58:42.630Z,13.40
2022-09-17T17:01:11.965Z,13.30
2022-09-17T17:03:39.881Z,13.20
2022-09-17T17:06:07.425Z,13.10
2022-09-17T17:08:34.838Z,13.10
2022-09-17T17:11:03.038Z,13.00
2022-09-17T17:13:30.021Z,12.90
2022-09-17T17:15:57.426Z,12.80
2022-09-17T17:18:25.079Z,12.70
2022-09-17T17:20:52.316Z,12.60
2022-09-17T17:23:19.336Z,12.60
2022-09-17T17:25:47.023Z,12.50
2022-09-17T17:28:15.007Z,12.70
2022-09-17T17:30:46.565Z,12.40
2022-09-17T17:33:14.889Z,12.40
2022-09-17T17:35:41.966Z,12.40
2022-09-17T17:38:08.940Z,12.50
2022-09-17T17:40:36.418Z,12.50
2022-09-17T17:43:03.617Z,12.50
2022-09-17T17:45:30.853Z,12.50
2022-09-17T17:47:57.994Z,12.50
2022-09-17T17:50:24.990Z,13.10
2022-09-17T17:52:54.766Z,12.50
2022-09-17T17:55:21.987Z,12.50
2022-09-17T17:58:01.369Z,12.40
2022-09-17T18:00:29.386Z,12.40
2022-09-17T18:02:56.413Z,12.30
2022-09-17T18:05:23.976Z,12.30
2022-09-17T18:07:51.181Z,12.30
2022-09-17T18:10:19.693Z,12.30
2022-09-17T18:12:50.596Z,12.30
2022-09-17T18:15:17.971Z,12.30
2022-09-17T18:17:48.022Z,12.30
2022-09-17T18:20:15.289Z,12.20
2022-09-17T18:22:42.577Z,12.20
2022-09-17T18:25:09.876Z,12.10
2022-09-17T18:27:36.816Z,12.10
2022-09-17T18:30:04.453Z,11.90
2022-09-17T18:32:31.519Z,11.80
2022-09-17T18:34:58.525Z,11.70
2022-09-17T18:37:25.785Z,11.70
2022-09-17T18:39:58.405Z,11.60
2022-09-17T18:42:26.548Z,11.50
2022-09-17T18:44:53.513Z,11.40
2022-09-17T18:47:20.555Z,11.30
2022-09-17T18:49:48.021Z,11.30
2022-09-17T18:52:15.268Z,11.20
2022-09-17T18:54:46.235Z,11.10
2022-09-17T18:57:13.968Z,11.10
2022-09-17T18:59:43.671Z,11.00
2022-09-17T19:02:13.970Z,11.00
2022-09-17T19:04:41.394Z,11.00
2022-09-17T19:07:08.532Z,11.00
2022-09-17T19:09:35.770Z,10.90
2022-09-17T19:12:03.155Z,10.90
2022-09-17T19:14:30.171Z,10.90
2022-09-17T19:16:57.192Z,10.90
2022-09-17T19:19:24.408Z,10.80
2022-09-17T19:21:51.385Z,10.80
2022-09-17T19:24:18.559Z,10.80
2022-09-17T19:26:50.635Z,10.70
2022-09-17T19:29:17.988Z,10.70
2022-09-17T19:31:45.234Z,10.70
2022-09-17T19:34:12.546Z,10.80
2022-09-17T19:36:39.539Z,10.80
2022-09-17T19:39:06.550Z,10.90
2022-09-17T19:41:37.088Z,11.00
2022-09-17T19:44:04.184Z,11.00
2022-09-17T19:46:32.342Z,11.40
2022-09-17T19:49:00.563Z,11.10
2022-09-17T19:51:32.174Z,11.10
2022-09-17T19:53:59.274Z,11.10
2022-09-17T19:56:27.775Z,11.20
2022-09-17T19:58:54.779Z,11.20
2022-09-17T20:01:22.235Z,11.30
2022-09-17T20:03:49.708Z,11.20
2022-09-17T20:06:18.849Z,11.30
2022-09-17T20:08:53.906Z,11.30
2022-09-17T20:11:23.634Z,11.30
2022-09-17T20:13:50.873Z,11.30
2022-09-17T20:16:21.835Z,11.40
2022-09-17T20:18:50.392Z,11.40
2022-09-17T20:21:20.594Z,11.40
2022-09-17T20:23:51.100Z,11.40
2022-09-17T20:26:18.230Z,11.40
2022-09-17T20:28:45.297Z,11.40
2022-09-17T20:31:15.106Z,11.40
2022-09-17T20:33:42.913Z,11.40
2022-09-17T20:36:15.463Z,11.50
2022-09-17T20:41:34.928Z,11.40
2022-09-17T20:44:06.357Z,11.40
2022-09-17T20:46:33.697Z,11.30
2022-09-17T20:49:00.689Z,11.30
2022-09-17T20:51:32.690Z,11.30
2022-09-17T20:54:01.893Z,11.30
2022-09-17T20:56:33.000Z,11.20
2022-09-17T20:59:09.421Z,11.20
2022-09-17T21:01:37.785Z,11.10
2022-09-17T21:04:08.029Z,11.10
2022-09-17T21:06:41.118Z,11.00
2022-09-17T21:09:15.529Z,11.00
2022-09-17T21:11:44.339Z,11.00
2022-09-17T21:14:12.347Z,10.90
2022-09-17T21:16:40.349Z,10.90
2022-09-17T21:19:09.074Z,10.90
2022-09-17T21:21:36.706Z,10.90
2022-09-17T21:24:06.225Z,10.90
2022-09-17T21:26:36.423Z,10.80
2022-09-17T21:29:04.920Z,10.80
2022-09-17T21:31:34.536Z,10.80
2022-09-17T21:34:04.932Z,10.70
2022-09-17T21:36:34.847Z,10.70
2022-09-17T21:39:05.852Z,10.70
2022-09-17T21:41:33.236Z,10.60
2022-09-17T21:44:00.437Z,10.60
2022-09-17T21:46:34.538Z,10.60
2022-09-17T21:49:02.621Z,10.50
2022-09-17T21:51:37.044Z,10.50
2022-09-17T21:54:12.710Z,10.50
2022-09-17T21:56:39.884Z,10.50
2022-09-17T21:59:09.318Z,10.50
2022-09-17T22:01:42.351Z,10.50
2022-09-17T22:04:13.052Z,10.50
2022-09-17T22:06:41.410Z,10.50
2022-09-17T22:09:14.291Z,10.50
2022-09-17T22:11:41.814Z,10.50
2022-09-17T22:14:15.196Z,10.60
2022-09-17T22:16:46.551Z,10.50
2022-09-17T22:19:16.494Z,10.50
2022-09-17T22:21:47.438Z,10.40
2022-09-17T22:24:19.182Z,10.40
2022-09-17T22:26:52.850Z,10.30
2022-09-17T22:29:23.108Z,10.30
2022-09-17T22:31:50.276Z,10.30
2022-09-17T22:34:20.422Z,10.30
2022-09-17T22:36:48.212Z,10.20
2022-09-17T22:39:15.687Z,10.20
2022-09-17T22:41:45.357Z,10.20
2022-09-17T22:44:18.255Z,10.20
2022-09-17T22:46:47.220Z,10.20
2022-09-17T22:49:15.047Z,10.20
2022-09-17T22:51:43.316Z,10.20
2022-09-17T22:54:12.017Z,10.30
2022-09-17T22:56:39.579Z,10.30
2022-09-17T22:59:06.923Z,10.30
2022-09-17T23:01:36.571Z,10.30
2022-09-17T23:04:04.838Z,10.30
2022-09-17T23:06:35.024Z,10.30
2022-09-17T23:09:02.905Z,10.30
2022-09-17T23:11:33.338Z,10.20
2022-09-17T23:14:03.095Z,10.20
2022-09-17T23:16:42.210Z,10.20
2022-09-17T23:19:09.949Z,10.20
2022-09-17T23:21:38.590Z,10.10
2022-09-17T23:24:06.489Z,10.10
2022-09-17T23:26:33.971Z,10.10
2022-09-17T23:29:04.968Z,10.10
2022-09-17T23:31:34.859Z,10.10
2022-09-17T23:34:03.846Z,10.10
2022-09-17T23:36:32.385Z,10.10
2022-09-17T23:39:02.081Z,10.10
2022-09-17T23:41:32.506Z,10.10
2022-09-17T23:44:10.705Z,10.10
2022-09-17T23:46:41.468Z,10.00
2022-09-17T23:49:10.095Z,10.00
2022-09-17T23:51:37.209Z,10.00
2022-09-17T23:54:06.938Z,10.00
2022-09-17T23:56:34.643Z,10.00
2022-09-17T23:59:02.224Z,10.00
